sensor_id;sensor_type;location;lat;lon;timestamp;P1;durP1;ratioP1;P2;durP2;ratioP2
80159;SDS011;69486;59.082;37.928;2023-11-19T00:01:41;3.28;;;2.75;;
80159;SDS011;69486;59.082;37.928;2023-11-19T00:04:06;1.98;;;1.88;;
80159;SDS011;69486;59.082;37.928;2023-11-19T00:06:33;2.10;;;2.00;;
80159;SDS011;69486;59.082;37.928;2023-11-19T00:08:59;2.45;;;2.35;;
80159;SDS011;69486;59.082;37.928;2023-11-19T00:11:25;2.00;;;1.90;;
80159;SDS011;69486;59.082;37.928;2023-11-19T00:13:51;2.88;;;2.03;;
80159;SDS011;69486;59.082;37.928;2023-11-19T00:16:17;2.10;;;2.00;;
80159;SDS011;69486;59.082;37.928;2023-11-19T00:18:43;2.42;;;2.30;;
80159;SDS011;69486;59.082;37.928;2023-11-19T00:21:09;2.15;;;2.05;;
80159;SDS011;69486;59.082;37.928;2023-11-19T00:23:36;2.58;;;2.38;;
80159;SDS011;69486;59.082;37.928;2023-11-19T00:26:02;2.05;;;1.95;;
80159;SDS011;69486;59.082;37.928;2023-11-19T00:28:28;2.20;;;2.10;;
80159;SDS011;69486;59.082;37.928;2023-11-19T00:30:54;2.40;;;2.30;;
80159;SDS011;69486;59.082;37.928;2023-11-19T00:33:20;2.47;;;2.38;;
80159;SDS011;69486;59.082;37.928;2023-11-19T00:35:46;2.67;;;2.58;;
80159;SDS011;69486;59.082;37.928;2023-11-19T00:38:12;2.40;;;2.30;;
80159;SDS011;69486;59.082;37.928;2023-11-19T00:40:38;2.20;;;2.10;;
80159;SDS011;69486;59.082;37.928;2023-11-19T00:43:04;2.22;;;2.13;;
80159;SDS011;69486;59.082;37.928;2023-11-19T00:45:30;2.63;;;2.53;;
80159;SDS011;69486;59.082;37.928;2023-11-19T00:47:55;2.13;;;2.03;;
80159;SDS011;69486;59.082;37.928;2023-11-19T00:50:21;3.38;;;2.60;;
80159;SDS011;69486;59.082;37.928;2023-11-19T00:52:48;2.67;;;2.13;;
80159;SDS011;69486;59.082;37.928;2023-11-19T00:55:13;2.05;;;2.00;;
80159;SDS011;69486;59.082;37.928;2023-11-19T00:57:39;2.20;;;2.10;;
80159;SDS011;69486;59.082;37.928;2023-11-19T01:00:05;2.33;;;2.20;;
80159;SDS011;69486;59.082;37.928;2023-11-19T01:02:44;2.40;;;2.25;;
80159;SDS011;69486;59.082;37.928;2023-11-19T01:05:10;2.13;;;2.03;;
80159;SDS011;69486;59.082;37.928;2023-11-19T01:07:39;2.30;;;2.20;;
80159;SDS011;69486;59.082;37.928;2023-11-19T01:10:05;2.20;;;2.10;;
80159;SDS011;69486;59.082;37.928;2023-11-19T01:12:31;2.47;;;2.30;;
80159;SDS011;69486;59.082;37.928;2023-11-19T01:14:57;2.20;;;2.10;;
80159;SDS011;69486;59.082;37.928;2023-11-19T01:17:23;2.20;;;2.10;;
80159;SDS011;69486;59.082;37.928;2023-11-19T01:19:49;2.20;;;2.10;;
80159;SDS011;69486;59.082;37.928;2023-11-19T01:22:15;2.33;;;1.80;;
80159;SDS011;69486;59.082;37.928;2023-11-19T01:24:41;2.42;;;2.33;;
80159;SDS011;69486;59.082;37.928;2023-11-19T01:27:07;2.05;;;1.95;;
80159;SDS011;69486;59.082;37.928;2023-11-19T01:29:34;2.17;;;2.08;;
80159;SDS011;69486;59.082;37.928;2023-11-19T01:32:00;2.10;;;2.00;;
80159;SDS011;69486;59.082;37.928;2023-11-19T01:34:26;2.10;;;2.00;;
80159;SDS011;69486;59.082;37.928;2023-11-19T01:36:51;2.47;;;2.00;;
80159;SDS011;69486;59.082;37.928;2023-11-19T01:39:17;2.47;;;2.28;;
80159;SDS011;69486;59.082;37.928;2023-11-19T01:41:43;2.20;;;2.05;;
80159;SDS011;69486;59.082;37.928;2023-11-19T01:44:08;1.70;;;1.70;;
80159;SDS011;69486;59.082;37.928;2023-11-19T01:46:34;1.95;;;1.85;;
80159;SDS011;69486;59.082;37.928;2023-11-19T01:49:02;2.42;;;2.33;;
80159;SDS011;69486;59.082;37.928;2023-11-19T01:51:29;2.03;;;1.92;;
80159;SDS011;69486;59.082;37.928;2023-11-19T01:53:55;2.50;;;2.40;;
80159;SDS011;69486;59.082;37.928;2023-11-19T01:56:22;2.17;;;2.08;;
80159;SDS011;69486;59.082;37.928;2023-11-19T01:58:48;1.75;;;1.75;;
80159;SDS011;69486;59.082;37.928;2023-11-19T02:01:14;2.17;;;2.08;;
80159;SDS011;69486;59.082;37.928;2023-11-19T02:03:40;2.63;;;2.50;;
80159;SDS011;69486;59.082;37.928;2023-11-19T02:06:06;2.40;;;2.30;;
80159;SDS011;69486;59.082;37.928;2023-11-19T02:08:32;2.22;;;2.13;;
80159;SDS011;69486;59.082;37.928;2023-11-19T02:10:58;2.33;;;2.22;;
80159;SDS011;69486;59.082;37.928;2023-11-19T02:13:25;2.30;;;2.20;;
80159;SDS011;69486;59.082;37.928;2023-11-19T02:15:51;2.20;;;2.10;;
80159;SDS011;69486;59.082;37.928;2023-11-19T02:18:18;2.15;;;2.05;;
80159;SDS011;69486;59.082;37.928;2023-11-19T02:20:45;2.00;;;2.00;;
80159;SDS011;69486;59.082;37.928;2023-11-19T02:23:11;3.17;;;2.22;;
80159;SDS011;69486;59.082;37.928;2023-11-19T02:25:37;2.60;;;2.40;;
80159;SDS011;69486;59.082;37.928;2023-11-19T02:28:03;2.20;;;2.10;;
80159;SDS011;69486;59.082;37.928;2023-11-19T02:30:28;2.40;;;2.30;;
80159;SDS011;69486;59.082;37.928;2023-11-19T02:32:57;2.30;;;2.20;;
80159;SDS011;69486;59.082;37.928;2023-11-19T02:35:25;2.17;;;2.08;;
80159;SDS011;69486;59.082;37.928;2023-11-19T02:37:51;2.50;;;2.40;;
80159;SDS011;69486;59.082;37.928;2023-11-19T02:40:17;2.10;;;2.00;;
80159;SDS011;69486;59.082;37.928;2023-11-19T02:42:42;2.10;;;2.00;;
80159;SDS011;69486;59.082;37.928;2023-11-19T02:45:08;2.53;;;2.42;;
80159;SDS011;69486;59.082;37.928;2023-11-19T02:47:40;2.17;;;2.08;;
80159;SDS011;69486;59.082;37.928;2023-11-19T02:50:07;1.85;;;1.75;;
80159;SDS011;69486;59.082;37.928;2023-11-19T02:52:39;2.17;;;2.08;;
80159;SDS011;69486;59.082;37.928;2023-11-19T02:55:05;2.35;;;2.25;;
80159;SDS011;69486;59.082;37.928;2023-11-19T02:57:35;2.38;;;2.28;;
80159;SDS011;69486;59.082;37.928;2023-11-19T03:00:01;2.22;;;2.13;;
80159;SDS011;69486;59.082;37.928;2023-11-19T03:02:31;2.45;;;2.30;;
80159;SDS011;69486;59.082;37.928;2023-11-19T03:05:09;2.30;;;2.20;;
80159;SDS011;69486;59.082;37.928;2023-11-19T03:07:34;2.22;;;2.13;;
80159;SDS011;69486;59.082;37.928;2023-11-19T03:10:00;2.10;;;2.00;;
80159;SDS011;69486;59.082;37.928;2023-11-19T03:12:26;1.90;;;1.90;;
80159;SDS011;69486;59.082;37.928;2023-11-19T03:14:51;2.28;;;2.17;;
80159;SDS011;69486;59.082;37.928;2023-11-19T03:17:17;2.20;;;2.10;;
80159;SDS011;69486;59.082;37.928;2023-11-19T03:19:44;2.15;;;2.05;;
80159;SDS011;69486;59.082;37.928;2023-11-19T03:22:09;2.17;;;2.08;;
80159;SDS011;69486;59.082;37.928;2023-11-19T03:24:36;2.25;;;2.15;;
80159;SDS011;69486;59.082;37.928;2023-11-19T03:27:02;1.90;;;1.90;;
80159;SDS011;69486;59.082;37.928;2023-11-19T03:29:30;2.20;;;2.10;;
80159;SDS011;69486;59.082;37.928;2023-11-19T03:32:22;2.33;;;2.22;;
80159;SDS011;69486;59.082;37.928;2023-11-19T03:34:48;2.10;;;2.00;;
80159;SDS011;69486;59.082;37.928;2023-11-19T03:37:13;2.10;;;2.00;;
80159;SDS011;69486;59.082;37.928;2023-11-19T03:39:43;2.47;;;2.38;;
80159;SDS011;69486;59.082;37.928;2023-11-19T03:42:20;2.25;;;2.15;;
80159;SDS011;69486;59.082;37.928;2023-11-19T03:44:58;2.05;;;1.95;;
80159;SDS011;69486;59.082;37.928;2023-11-19T03:47:24;2.00;;;1.90;;
80159;SDS011;69486;59.082;37.928;2023-11-19T03:49:50;2.03;;;1.92;;
80159;SDS011;69486;59.082;37.928;2023-11-19T03:52:17;2.22;;;2.13;;
80159;SDS011;69486;59.082;37.928;2023-11-19T03:54:43;2.30;;;2.20;;
80159;SDS011;69486;59.082;37.928;2023-11-19T03:57:10;2.40;;;2.30;;
80159;SDS011;69486;59.082;37.928;2023-11-19T03:59:39;2.53;;;2.42;;
80159;SDS011;69486;59.082;37.928;2023-11-19T04:02:05;3.08;;;2.55;;
80159;SDS011;69486;59.082;37.928;2023-11-19T04:04:32;2.15;;;2.00;;
80159;SDS011;69486;59.082;37.928;2023-11-19T04:06:58;2.65;;;2.47;;
80159;SDS011;69486;59.082;37.928;2023-11-19T04:09:25;2.42;;;2.33;;
80159;SDS011;69486;59.082;37.928;2023-11-19T04:11:50;2.60;;;2.50;;
80159;SDS011;69486;59.082;37.928;2023-11-19T04:14:16;2.45;;;2.35;;
80159;SDS011;69486;59.082;37.928;2023-11-19T04:16:44;2.40;;;2.30;;
80159;SDS011;69486;59.082;37.928;2023-11-19T04:19:11;2.58;;;2.20;;
80159;SDS011;69486;59.082;37.928;2023-11-19T04:21:36;2.53;;;2.33;;
80159;SDS011;69486;59.082;37.928;2023-11-19T04:24:02;3.20;;;3.03;;
80159;SDS011;69486;59.082;37.928;2023-11-19T04:26:28;2.50;;;2.40;;
80159;SDS011;69486;59.082;37.928;2023-11-19T04:28:54;2.30;;;2.20;;
80159;SDS011;69486;59.082;37.928;2023-11-19T04:31:22;2.42;;;2.33;;
80159;SDS011;69486;59.082;37.928;2023-11-19T04:33:48;2.53;;;2.42;;
80159;SDS011;69486;59.082;37.928;2023-11-19T04:36:13;2.45;;;2.35;;
80159;SDS011;69486;59.082;37.928;2023-11-19T04:38:44;2.25;;;2.15;;
80159;SDS011;69486;59.082;37.928;2023-11-19T04:41:10;2.65;;;2.55;;
80159;SDS011;69486;59.082;37.928;2023-11-19T04:43:36;2.65;;;2.55;;
80159;SDS011;69486;59.082;37.928;2023-11-19T04:46:03;3.40;;;2.70;;
80159;SDS011;69486;59.082;37.928;2023-11-19T04:48:29;2.50;;;2.40;;
80159;SDS011;69486;59.082;37.928;2023-11-19T04:50:55;2.50;;;2.30;;
80159;SDS011;69486;59.082;37.928;2023-11-19T04:53:21;2.53;;;2.40;;
80159;SDS011;69486;59.082;37.928;2023-11-19T04:55:46;2.80;;;2.63;;
80159;SDS011;69486;59.082;37.928;2023-11-19T04:58:13;2.63;;;2.42;;
80159;SDS011;69486;59.082;37.928;2023-11-19T05:00:38;2.33;;;2.22;;
80159;SDS011;69486;59.082;37.928;2023-11-19T05:03:04;2.55;;;2.38;;
80159;SDS011;69486;59.082;37.928;2023-11-19T05:05:30;3.13;;;2.60;;
80159;SDS011;69486;59.082;37.928;2023-11-19T05:07:58;2.50;;;2.40;;
80159;SDS011;69486;59.082;37.928;2023-11-19T05:10:27;2.30;;;2.20;;
80159;SDS011;69486;59.082;37.928;2023-11-19T05:12:56;3.00;;;2.90;;
80159;SDS011;69486;59.082;37.928;2023-11-19T05:15:24;3.20;;;3.00;;
80159;SDS011;69486;59.082;37.928;2023-11-19T05:17:50;3.30;;;3.03;;
80159;SDS011;69486;59.082;37.928;2023-11-19T05:20:16;3.05;;;2.85;;
80159;SDS011;69486;59.082;37.928;2023-11-19T05:22:45;2.95;;;2.75;;
80159;SDS011;69486;59.082;37.928;2023-11-19T05:25:11;2.90;;;2.80;;
80159;SDS011;69486;59.082;37.928;2023-11-19T05:27:39;3.88;;;3.60;;
80159;SDS011;69486;59.082;37.928;2023-11-19T05:30:04;3.13;;;2.92;;
80159;SDS011;69486;59.082;37.928;2023-11-19T05:32:33;3.13;;;2.92;;
80159;SDS011;69486;59.082;37.928;2023-11-19T05:34:58;3.45;;;3.15;;
80159;SDS011;69486;59.082;37.928;2023-11-19T05:37:24;3.55;;;3.28;;
80159;SDS011;69486;59.082;37.928;2023-11-19T05:39:50;3.65;;;3.35;;
80159;SDS011;69486;59.082;37.928;2023-11-19T05:42:16;3.45;;;3.15;;
80159;SDS011;69486;59.082;37.928;2023-11-19T05:44:41;3.35;;;3.13;;
80159;SDS011;69486;59.082;37.928;2023-11-19T05:47:07;3.35;;;3.15;;
80159;SDS011;69486;59.082;37.928;2023-11-19T05:49:33;3.58;;;3.28;;
80159;SDS011;69486;59.082;37.928;2023-11-19T05:51:58;4.53;;;3.72;;
80159;SDS011;69486;59.082;37.928;2023-11-19T05:54:24;3.25;;;3.03;;
80159;SDS011;69486;59.082;37.928;2023-11-19T05:56:50;3.20;;;2.90;;
80159;SDS011;69486;59.082;37.928;2023-11-19T05:59:19;3.13;;;2.92;;
80159;SDS011;69486;59.082;37.928;2023-11-19T06:01:45;2.97;;;2.78;;
80159;SDS011;69486;59.082;37.928;2023-11-19T06:04:10;3.33;;;3.13;;
80159;SDS011;69486;59.082;37.928;2023-11-19T06:06:36;6.13;;;3.15;;
80159;SDS011;69486;59.082;37.928;2023-11-19T06:09:02;3.03;;;2.80;;
80159;SDS011;69486;59.082;37.928;2023-11-19T06:11:28;3.30;;;3.05;;
80159;SDS011;69486;59.082;37.928;2023-11-19T06:13:54;3.65;;;3.35;;
80159;SDS011;69486;59.082;37.928;2023-11-19T06:16:20;3.75;;;3.45;;
80159;SDS011;69486;59.082;37.928;2023-11-19T06:18:46;3.45;;;3.15;;
80159;SDS011;69486;59.082;37.928;2023-11-19T06:21:12;3.92;;;3.58;;
80159;SDS011;69486;59.082;37.928;2023-11-19T06:23:37;4.20;;;3.90;;
80159;SDS011;69486;59.082;37.928;2023-11-19T06:26:03;5.20;;;4.70;;
80159;SDS011;69486;59.082;37.928;2023-11-19T06:28:30;4.93;;;4.43;;
80159;SDS011;69486;59.082;37.928;2023-11-19T06:30:56;5.50;;;4.53;;
80159;SDS011;69486;59.082;37.928;2023-11-19T06:33:26;7.15;;;5.30;;
80159;SDS011;69486;59.082;37.928;2023-11-19T06:35:52;5.65;;;4.22;;
80159;SDS011;69486;59.082;37.928;2023-11-19T06:38:18;5.80;;;4.35;;
80159;SDS011;69486;59.082;37.928;2023-11-19T06:40:44;4.97;;;4.20;;
80159;SDS011;69486;59.082;37.928;2023-11-19T06:43:09;4.55;;;4.15;;
80159;SDS011;69486;59.082;37.928;2023-11-19T06:45:35;5.35;;;4.63;;
80159;SDS011;69486;59.082;37.928;2023-11-19T06:48:03;16.13;;;9.10;;
80159;SDS011;69486;59.082;37.928;2023-11-19T06:50:30;6.95;;;5.25;;
80159;SDS011;69486;59.082;37.928;2023-11-19T06:52:56;6.80;;;5.88;;
80159;SDS011;69486;59.082;37.928;2023-11-19T06:55:22;5.10;;;4.60;;
80159;SDS011;69486;59.082;37.928;2023-11-19T06:57:48;14.30;;;8.05;;
80159;SDS011;69486;59.082;37.928;2023-11-19T07:00:14;6.60;;;4.90;;
80159;SDS011;69486;59.082;37.928;2023-11-19T07:02:46;5.30;;;4.55;;
80159;SDS011;69486;59.082;37.928;2023-11-19T07:05:11;7.15;;;4.35;;
80159;SDS011;69486;59.082;37.928;2023-11-19T07:07:38;5.80;;;4.47;;
80159;SDS011;69486;59.082;37.928;2023-11-19T07:10:06;4.63;;;4.22;;
80159;SDS011;69486;59.082;37.928;2023-11-19T07:12:34;7.47;;;5.05;;
80159;SDS011;69486;59.082;37.928;2023-11-19T07:15:01;7.50;;;4.55;;
80159;SDS011;69486;59.082;37.928;2023-11-19T07:17:30;5.75;;;4.85;;
80159;SDS011;69486;59.082;37.928;2023-11-19T07:19:56;6.70;;;4.22;;
80159;SDS011;69486;59.082;37.928;2023-11-19T07:22:25;4.85;;;4.38;;
80159;SDS011;69486;59.082;37.928;2023-11-19T07:24:51;6.63;;;4.63;;
80159;SDS011;69486;59.082;37.928;2023-11-19T07:27:18;7.07;;;4.78;;
80159;SDS011;69486;59.082;37.928;2023-11-19T07:29:44;6.72;;;5.20;;
80159;SDS011;69486;59.082;37.928;2023-11-19T07:32:11;5.63;;;5.07;;
80159;SDS011;69486;59.082;37.928;2023-11-19T07:34:39;6.07;;;5.13;;
80159;SDS011;69486;59.082;37.928;2023-11-19T07:37:11;6.88;;;5.43;;
80159;SDS011;69486;59.082;37.928;2023-11-19T07:39:37;6.78;;;4.68;;
80159;SDS011;69486;59.082;37.928;2023-11-19T07:42:06;5.60;;;5.10;;
80159;SDS011;69486;59.082;37.928;2023-11-19T07:44:32;6.78;;;4.88;;
80159;SDS011;69486;59.082;37.928;2023-11-19T07:46:58;4.88;;;4.22;;
80159;SDS011;69486;59.082;37.928;2023-11-19T07:49:24;4.75;;;3.92;;
80159;SDS011;69486;59.082;37.928;2023-11-19T07:51:50;5.63;;;4.20;;
80159;SDS011;69486;59.082;37.928;2023-11-19T07:54:15;4.90;;;4.15;;
80159;SDS011;69486;59.082;37.928;2023-11-19T07:56:42;5.10;;;4.15;;
80159;SDS011;69486;59.082;37.928;2023-11-19T07:59:08;6.53;;;5.13;;
80159;SDS011;69486;59.082;37.928;2023-11-19T08:01:37;5.03;;;4.40;;
80159;SDS011;69486;59.082;37.928;2023-11-19T08:04:03;5.45;;;4.85;;
80159;SDS011;69486;59.082;37.928;2023-11-19T08:06:28;6.30;;;4.32;;
80159;SDS011;69486;59.082;37.928;2023-11-19T08:08:54;4.55;;;4.15;;
80159;SDS011;69486;59.082;37.928;2023-11-19T08:11:20;5.57;;;4.55;;
80159;SDS011;69486;59.082;37.928;2023-11-19T08:13:48;4.28;;;3.92;;
80159;SDS011;69486;59.082;37.928;2023-11-19T08:16:14;4.50;;;4.13;;
80159;SDS011;69486;59.082;37.928;2023-11-19T08:18:43;4.07;;;3.72;;
80159;SDS011;69486;59.082;37.928;2023-11-19T08:21:12;5.38;;;4.57;;
80159;SDS011;69486;59.082;37.928;2023-11-19T08:23:41;5.00;;;4.15;;
80159;SDS011;69486;59.082;37.928;2023-11-19T08:26:14;4.50;;;4.10;;
80159;SDS011;69486;59.082;37.928;2023-11-19T08:28:42;3.97;;;3.60;;
80159;SDS011;69486;59.082;37.928;2023-11-19T08:31:08;4.05;;;3.75;;
80159;SDS011;69486;59.082;37.928;2023-11-19T08:33:34;4.85;;;4.15;;
80159;SDS011;69486;59.082;37.928;2023-11-19T08:35:59;4.68;;;4.20;;
80159;SDS011;69486;59.082;37.928;2023-11-19T08:38:34;4.55;;;4.07;;
80159;SDS011;69486;59.082;37.928;2023-11-19T08:41:02;4.25;;;3.85;;
80159;SDS011;69486;59.082;37.928;2023-11-19T08:43:29;5.03;;;4.25;;
80159;SDS011;69486;59.082;37.928;2023-11-19T08:46:00;7.45;;;5.43;;
80159;SDS011;69486;59.082;37.928;2023-11-19T08:48:25;5.55;;;4.65;;
80159;SDS011;69486;59.082;37.928;2023-11-19T08:50:52;4.85;;;4.45;;
80159;SDS011;69486;59.082;37.928;2023-11-19T08:53:18;11.10;;;7.32;;
80159;SDS011;69486;59.082;37.928;2023-11-19T08:55:43;5.60;;;4.70;;
80159;SDS011;69486;59.082;37.928;2023-11-19T08:58:10;4.22;;;3.83;;
80159;SDS011;69486;59.082;37.928;2023-11-19T09:00:36;6.57;;;5.47;;
80159;SDS011;69486;59.082;37.928;2023-11-19T09:03:06;6.78;;;4.75;;
80159;SDS011;69486;59.082;37.928;2023-11-19T09:05:31;5.60;;;4.72;;
80159;SDS011;69486;59.082;37.928;2023-11-19T09:07:57;6.65;;;5.07;;
80159;SDS011;69486;59.082;37.928;2023-11-19T09:10:27;8.30;;;4.68;;
80159;SDS011;69486;59.082;37.928;2023-11-19T09:12:55;4.68;;;4.28;;
80159;SDS011;69486;59.082;37.928;2023-11-19T09:15:20;4.85;;;4.45;;
80159;SDS011;69486;59.082;37.928;2023-11-19T09:17:46;7.50;;;5.82;;
80159;SDS011;69486;59.082;37.928;2023-11-19T09:20:12;4.72;;;4.05;;
80159;SDS011;69486;59.082;37.928;2023-11-19T09:22:43;5.97;;;4.00;;
80159;SDS011;69486;59.082;37.928;2023-11-19T09:25:09;5.03;;;4.38;;
80159;SDS011;69486;59.082;37.928;2023-11-19T09:27:36;5.07;;;4.65;;
80159;SDS011;69486;59.082;37.928;2023-11-19T09:30:02;5.20;;;4.60;;
80159;SDS011;69486;59.082;37.928;2023-11-19T09:32:29;4.13;;;3.72;;
80159;SDS011;69486;59.082;37.928;2023-11-19T09:34:55;4.20;;;3.83;;
80159;SDS011;69486;59.082;37.928;2023-11-19T09:37:22;5.25;;;4.68;;
80159;SDS011;69486;59.082;37.928;2023-11-19T09:40:01;4.68;;;4.25;;
80159;SDS011;69486;59.082;37.928;2023-11-19T09:42:26;4.65;;;4.25;;
80159;SDS011;69486;59.082;37.928;2023-11-19T09:44:53;5.10;;;3.65;;
80159;SDS011;69486;59.082;37.928;2023-11-19T09:47:23;4.60;;;4.20;;
80159;SDS011;69486;59.082;37.928;2023-11-19T09:49:49;4.32;;;3.92;;
80159;SDS011;69486;59.082;37.928;2023-11-19T09:52:15;5.65;;;4.20;;
80159;SDS011;69486;59.082;37.928;2023-11-19T09:54:41;9.00;;;5.28;;
80159;SDS011;69486;59.082;37.928;2023-11-19T09:57:06;5.35;;;4.53;;
80159;SDS011;69486;59.082;37.928;2023-11-19T09:59:33;5.90;;;4.45;;
80159;SDS011;69486;59.082;37.928;2023-11-19T10:01:58;4.57;;;4.18;;
80159;SDS011;69486;59.082;37.928;2023-11-19T10:04:24;5.80;;;4.63;;
80159;SDS011;69486;59.082;37.928;2023-11-19T10:06:51;4.50;;;4.07;;
80159;SDS011;69486;59.082;37.928;2023-11-19T10:09:22;4.85;;;4.47;;
80159;SDS011;69486;59.082;37.928;2023-11-19T10:11:49;4.63;;;3.70;;
80159;SDS011;69486;59.082;37.928;2023-11-19T10:14:15;4.78;;;4.28;;
80159;SDS011;69486;59.082;37.928;2023-11-19T10:16:44;4.70;;;4.28;;
80159;SDS011;69486;59.082;37.928;2023-11-19T10:19:12;4.32;;;3.80;;
80159;SDS011;69486;59.082;37.928;2023-11-19T10:21:46;4.60;;;4.20;;
80159;SDS011;69486;59.082;37.928;2023-11-19T10:24:28;4.78;;;4.38;;
80159;SDS011;69486;59.082;37.928;2023-11-19T10:27:01;5.03;;;4.28;;
80159;SDS011;69486;59.082;37.928;2023-11-19T10:29:30;4.00;;;3.70;;
80159;SDS011;69486;59.082;37.928;2023-11-19T10:31:56;5.18;;;4.15;;
80159;SDS011;69486;59.082;37.928;2023-11-19T10:34:26;5.47;;;4.20;;
80159;SDS011;69486;59.082;37.928;2023-11-19T10:36:52;4.72;;;4.32;;
80159;SDS011;69486;59.082;37.928;2023-11-19T10:39:19;3.70;;;3.40;;
80159;SDS011;69486;59.082;37.928;2023-11-19T10:41:46;4.55;;;4.13;;
80159;SDS011;69486;59.082;37.928;2023-11-19T10:44:33;4.45;;;3.90;;
80159;SDS011;69486;59.082;37.928;2023-11-19T10:47:01;4.70;;;4.40;;
80159;SDS011;69486;59.082;37.928;2023-11-19T10:49:27;4.13;;;3.72;;
80159;SDS011;69486;59.082;37.928;2023-11-19T10:51:53;4.38;;;3.97;;
80159;SDS011;69486;59.082;37.928;2023-11-19T10:54:19;25.80;;;13.57;;
80159;SDS011;69486;59.082;37.928;2023-11-19T10:56:46;6.18;;;5.13;;
80159;SDS011;69486;59.082;37.928;2023-11-19T10:59:12;19.83;;;10.30;;
80159;SDS011;69486;59.082;37.928;2023-11-19T11:01:45;6.80;;;5.25;;
80159;SDS011;69486;59.082;37.928;2023-11-19T11:06:38;4.97;;;4.57;;
80159;SDS011;69486;59.082;37.928;2023-11-19T11:09:05;5.20;;;4.43;;
80159;SDS011;69486;59.082;37.928;2023-11-19T11:11:31;4.45;;;4.05;;
80159;SDS011;69486;59.082;37.928;2023-11-19T11:13:57;5.93;;;4.65;;
80159;SDS011;69486;59.082;37.928;2023-11-19T11:16:24;3.35;;;3.15;;
80159;SDS011;69486;59.082;37.928;2023-11-19T11:18:56;4.78;;;3.70;;
80159;SDS011;69486;59.082;37.928;2023-11-19T11:21:26;6.05;;;4.18;;
80159;SDS011;69486;59.082;37.928;2023-11-19T11:23:59;4.43;;;4.07;;
80159;SDS011;69486;59.082;37.928;2023-11-19T11:26:43;4.30;;;4.00;;
80159;SDS011;69486;59.082;37.928;2023-11-19T11:31:58;4.50;;;4.10;;
80159;SDS011;69486;59.082;37.928;2023-11-19T11:39:36;4.22;;;3.83;;
80159;SDS011;69486;59.082;37.928;2023-11-19T11:50:34;4.72;;;4.25;;
80159;SDS011;69486;59.082;37.928;2023-11-19T11:55:37;12.25;;;6.38;;
80159;SDS011;69486;59.082;37.928;2023-11-19T11:58:03;4.03;;;3.70;;
80159;SDS011;69486;59.082;37.928;2023-11-19T12:00:34;4.72;;;4.32;;
80159;SDS011;69486;59.082;37.928;2023-11-19T12:03:06;4.32;;;3.47;;
80159;SDS011;69486;59.082;37.928;2023-11-19T12:05:44;3.97;;;3.67;;
80159;SDS011;69486;59.082;37.928;2023-11-19T12:08:29;5.53;;;4.10;;
80159;SDS011;69486;59.082;37.928;2023-11-19T12:10:56;4.82;;;4.43;;
80159;SDS011;69486;59.082;37.928;2023-11-19T12:13:26;3.78;;;3.47;;
80159;SDS011;69486;59.082;37.928;2023-11-19T12:18:28;4.63;;;3.97;;
80159;SDS011;69486;59.082;37.928;2023-11-19T12:20:55;4.40;;;4.00;;
80159;SDS011;69486;59.082;37.928;2023-11-19T12:23:24;5.35;;;3.85;;
80159;SDS011;69486;59.082;37.928;2023-11-19T12:25:50;3.90;;;3.58;;
80159;SDS011;69486;59.082;37.928;2023-11-19T12:28:16;3.63;;;3.35;;
80159;SDS011;69486;59.082;37.928;2023-11-19T12:30:42;2.92;;;2.72;;
80159;SDS011;69486;59.082;37.928;2023-11-19T12:33:09;4.63;;;3.20;;
80159;SDS011;69486;59.082;37.928;2023-11-19T12:35:45;3.55;;;3.25;;
80159;SDS011;69486;59.082;37.928;2023-11-19T12:38:22;4.20;;;3.80;;
80159;SDS011;69486;59.082;37.928;2023-11-19T12:41:05;3.47;;;3.25;;
80159;SDS011;69486;59.082;37.928;2023-11-19T12:43:31;3.35;;;3.15;;
80159;SDS011;69486;59.082;37.928;2023-11-19T12:45:57;3.30;;;3.03;;
80159;SDS011;69486;59.082;37.928;2023-11-19T12:48:23;3.30;;;3.10;;
80159;SDS011;69486;59.082;37.928;2023-11-19T12:50:52;3.55;;;3.25;;
80159;SDS011;69486;59.082;37.928;2023-11-19T12:53:25;3.63;;;3.33;;
80159;SDS011;69486;59.082;37.928;2023-11-19T12:55:51;2.97;;;2.78;;
80159;SDS011;69486;59.082;37.928;2023-11-19T12:58:33;3.53;;;3.22;;
80159;SDS011;69486;59.082;37.928;2023-11-19T13:01:00;3.53;;;2.80;;
80159;SDS011;69486;59.082;37.928;2023-11-19T13:03:30;3.05;;;2.85;;
80159;SDS011;69486;59.082;37.928;2023-11-19T13:06:09;3.40;;;3.13;;
80159;SDS011;69486;59.082;37.928;2023-11-19T13:08:38;3.15;;;2.95;;
80159;SDS011;69486;59.082;37.928;2023-11-19T13:11:09;3.53;;;3.20;;
80159;SDS011;69486;59.082;37.928;2023-11-19T13:16:42;3.58;;;3.28;;
80159;SDS011;69486;59.082;37.928;2023-11-19T13:19:08;2.95;;;2.83;;
80159;SDS011;69486;59.082;37.928;2023-11-19T13:21:36;3.42;;;3.15;;
80159;SDS011;69486;59.082;37.928;2023-11-19T13:24:03;3.70;;;3.40;;
80159;SDS011;69486;59.082;37.928;2023-11-19T13:26:29;3.53;;;3.22;;
80159;SDS011;69486;59.082;37.928;2023-11-19T13:28:54;3.33;;;3.03;;
80159;SDS011;69486;59.082;37.928;2023-11-19T13:31:23;3.10;;;2.90;;
80159;SDS011;69486;59.082;37.928;2023-11-19T13:33:48;3.10;;;2.90;;
80159;SDS011;69486;59.082;37.928;2023-11-19T13:36:14;7.80;;;4.93;;
80159;SDS011;69486;59.082;37.928;2023-11-19T13:38:40;3.42;;;3.17;;
80159;SDS011;69486;59.082;37.928;2023-11-19T13:41:09;3.42;;;3.17;;
80159;SDS011;69486;59.082;37.928;2023-11-19T13:43:39;3.55;;;3.35;;
80159;SDS011;69486;59.082;37.928;2023-11-19T13:46:05;3.92;;;3.15;;
80159;SDS011;69486;59.082;37.928;2023-11-19T13:48:31;2.75;;;2.60;;
80159;SDS011;69486;59.082;37.928;2023-11-19T13:50:57;3.03;;;2.83;;
80159;SDS011;69486;59.082;37.928;2023-11-19T13:53:23;3.20;;;3.00;;
80159;SDS011;69486;59.082;37.928;2023-11-19T13:55:49;3.38;;;3.08;;
80159;SDS011;69486;59.082;37.928;2023-11-19T13:58:15;3.20;;;2.78;;
80159;SDS011;69486;59.082;37.928;2023-11-19T14:00:41;2.80;;;2.70;;
80159;SDS011;69486;59.082;37.928;2023-11-19T14:03:09;2.90;;;2.70;;
80159;SDS011;69486;59.082;37.928;2023-11-19T14:05:38;2.75;;;2.65;;
80159;SDS011;69486;59.082;37.928;2023-11-19T14:08:04;3.08;;;2.78;;
80159;SDS011;69486;59.082;37.928;2023-11-19T14:10:37;2.97;;;2.78;;
80159;SDS011;69486;59.082;37.928;2023-11-19T14:13:04;2.90;;;2.70;;
80159;SDS011;69486;59.082;37.928;2023-11-19T14:15:30;3.08;;;2.75;;
80159;SDS011;69486;59.082;37.928;2023-11-19T14:17:56;3.45;;;3.20;;
80159;SDS011;69486;59.082;37.928;2023-11-19T14:20:22;3.33;;;3.13;;
80159;SDS011;69486;59.082;37.928;2023-11-19T14:22:48;2.90;;;2.70;;
80159;SDS011;69486;59.082;37.928;2023-11-19T14:25:14;2.75;;;2.58;;
80159;SDS011;69486;59.082;37.928;2023-11-19T14:27:41;2.92;;;2.72;;
80159;SDS011;69486;59.082;37.928;2023-11-19T14:30:10;2.80;;;2.65;;
80159;SDS011;69486;59.082;37.928;2023-11-19T14:32:40;2.67;;;2.58;;
80159;SDS011;69486;59.082;37.928;2023-11-19T14:35:06;2.63;;;2.42;;
80159;SDS011;69486;59.082;37.928;2023-11-19T14:37:32;4.00;;;3.42;;
80159;SDS011;69486;59.082;37.928;2023-11-19T14:39:59;6.43;;;5.20;;
80159;SDS011;69486;59.082;37.928;2023-11-19T14:42:26;5.65;;;3.25;;
80159;SDS011;69486;59.082;37.928;2023-11-19T14:44:52;3.22;;;2.92;;
80159;SDS011;69486;59.082;37.928;2023-11-19T14:47:19;3.17;;;2.63;;
80159;SDS011;69486;59.082;37.928;2023-11-19T14:49:45;2.50;;;2.40;;
80159;SDS011;69486;59.082;37.928;2023-11-19T14:52:10;2.78;;;2.58;;
80159;SDS011;69486;59.082;37.928;2023-11-19T14:54:36;2.42;;;2.33;;
80159;SDS011;69486;59.082;37.928;2023-11-19T14:57:07;2.50;;;2.40;;
80159;SDS011;69486;59.082;37.928;2023-11-19T14:59:36;2.70;;;2.47;;
80159;SDS011;69486;59.082;37.928;2023-11-19T15:02:02;2.75;;;2.65;;